Aérodrome :
LOGIN :

S'inscrire | Disclaimer

   EN    FR    IT 

 










Légende :    VFR   VFR Marginal   IFR   IFR Intensif   IFR Très Intensif
Visi : 
Plafond : 
>= 8 km
>= 3000ft
5 à 8 km
1000 à 3000 ft
1500m à 5 km
500 à 1000 ft
800 à 1500m
200 à 500 ft
< 800m
< 200 ft
Symboles :   Orages  Brouillard  Fortes neiges  Fortes précipitations  Vent > 20 kt
SIGMETs :   Divers  Orages  Givrage  Turbulence  Onde Orograph.  Cendres Volcan.






- Altitude de l'aérodrome : 326 ft
- Code IATA : LCG


LECO - A Coruna

DERNIER METAR :
  • 030700Z 17005KT 130V190 9999 SCT027 13/13 Q1019 NOSIG

METARs EXPIRÉS :
  • 030630Z 15003KT 9999 BKN028 13/13 Q1019 NOSIG
  • 030600Z 17005KT 9999 BKN027 12/12 Q1018 NOSIG
  • 030530Z 15005KT 9999 BKN027 12/12 Q1018 NOSIG
  • 030500Z 16004KT 9999 SCT028 12/12 Q1018 NOSIG
  • 030430Z 17004KT 9999 FEW029 12/12 Q1018 NOSIG

TAF TAF LECO
Valide du 03 à 03h jusqu'au 04 à 03h UTC


030200Z 0303/0403 28008KT 9999 FEW030 TX22/0313Z TN12/0305Z
PROB40
TEMPO 0303/0307 3000 BCFG BKN005 BKN010
PROB40
TEMPO 0303/0308 0800 FG VV001
TEMPO 0316/0403 26010KT 3000 RA SHRA BKN010 SCT030TCU



MET'MAP, la Météo Aéronautique d'un coup d'oeil ! - Copyright ORBIFLY Décembre 2007 - Disclaimer

ORBIFLY MET'MAP TEAM :

Programmation & Développement : Alexandra Zaïnal
Sur une idée originale de : Baudouin d'Aumeries
Assistance à la programmation : Marc-Olivier Méhu
Soutien technique & logistique : Manuel Goepfert

Contact : metmap@orbifly.com




SOURCES & CREDITS :

   NOAA